Tropical Cyclones
[Index]
Main Index Home Page Stock Weather Photos Extreme Storms Discussion Storm News and Storm Chasing Reports Tropical Cyclones / Hurricanes / Typhoons Weather Data and Links Wild Fires / Bushfires Weather Observation Techniques Weather Picture Catalogue Tornado Pictures and Reports Stock Video Footage and DVDs for sale
Season 2001-2002 Tropical Cyclone HARY Track Map
Season 2001-2002 Summaries: [BoM-AU] [JTWC-AU] [JTWC-SIO] [JTWC-SPAC] [JTWC-SH]
<<- Previous TC | JTWC 2001-2002 Season | Next TC ->>

click for intensity scale information  Lat/long Grid: Show Hide

 Date Labels: Show Hide

Joint Typhoon Warning Centre Cyclone Data

Name: HARY

05 Mar 2002 00:00 UTC to 14 Mar 2002 00:00 UTC

    date/time    lat    long     hPa   cat  kts
2002-03-05 00   10.1    66.6    1002         25          
2002-03-05 06   10.4    66.1    1002         25          
2002-03-05 12   10.7    65.6    1000         30          
2002-03-05 18   11.0    64.9    1000         30          
2002-03-06 00   11.2    64.1     997         35          
2002-03-06 06   11.4    63.1     994    1    40          
2002-03-06 12   11.6    61.9     994    1    40          
2002-03-06 18   11.6    60.7     987    1    50          
2002-03-07 00   11.5    59.6     984    2    55          
2002-03-07 06   11.3    58.5     980    2    60          
2002-03-07 12   11.3    57.4     976    2    65          
2002-03-07 18   11.4    56.3     967    3    75          
2002-03-08 00   11.4    55.2     938    4   105          
2002-03-08 06   11.3    54.2     927    4   115          
2002-03-08 12   11.3    53.5     922    4   120          
2002-03-08 18   11.4    52.8     910    5   130          
2002-03-09 00   11.8    52.6     916    5   125          
2002-03-09 06   12.4    52.3     916    5   125          
2002-03-09 12   13.2    51.7     916    5   125          
2002-03-09 18   14.0    51.2     910    5   130          
2002-03-10 00   14.7    50.8     898    5   140          
2002-03-10 06   15.4    50.5     898    5   140          
2002-03-10 12   16.1    50.4     904    5   135          
2002-03-10 18   16.9    50.4     916    5   125          
2002-03-11 00   18.2    50.6     927    4   115          
2002-03-11 06   19.4    51.0     927    4   115          
2002-03-11 12   20.8    51.5     933    4   110          
2002-03-11 18   22.3    52.2     944    4   100          
2002-03-12 00   23.5    53.0     944    4   100          
2002-03-12 06   24.9    53.7     949    3    95          
2002-03-12 12   26.3    54.5     954    3    90          
2002-03-12 18   27.4    55.2     963    3    80          
2002-03-13 00   28.2    55.8     972    2    70          
2002-03-13 06   29.0    56.4     984    2    55          
2002-03-13 12   29.6    56.9     991    1    45          
2002-03-13 18   30.1    57.7     994    1    40          
2002-03-14 00   30.4    58.7     994    1    40          
Winds are 1-min average.

Tropical cyclone tracks developed by Michael Bath using data from the Joint Typhoon Warning Centre Best Tracks and Google Maps.


[Australian Severe Weather index] [Copyright Notice] [Email Contacts] [Search This Site] [Privacy Policy]
Document: tropical_cyclone_hary.htm Updated: 28 June 2017